createdAt,value
2023-03-29T00:04:30.844Z,119.49858
2023-03-29T00:09:32.444Z,123.59184
2023-03-29T00:14:33.752Z,120
2023-03-29T00:19:35.037Z,123.06977
2023-03-29T00:24:36.519Z,123.06977
2023-03-29T00:29:37.842Z,120
2023-03-29T00:34:39.196Z,119.49858
2023-03-29T00:39:40.801Z,117.03371
2023-03-29T00:44:42.111Z,116.06704
2023-03-29T00:49:43.436Z,115.11111
2023-03-29T00:54:45.058Z,113.69697
2023-03-29T00:59:46.521Z,116.54902
2023-03-29T01:04:47.940Z,119
2023-03-29T01:09:49.367Z,119
2023-03-29T01:14:51.373Z,121.01149
2023-03-29T01:19:52.792Z,121.01149
2023-03-29T01:24:54.422Z,121.01149
2023-03-29T01:29:55.691Z,126.24852
2023-03-29T01:34:57.249Z,127.8806
2023-03-29T01:39:58.646Z,127.8806
2023-03-29T01:44:59.909Z,124.11696
2023-03-29T01:50:01.182Z,122.03468
2023-03-29T01:55:02.476Z,131.23404
2023-03-29T02:00:03.726Z,127.8806
2023-03-29T02:05:05.120Z,123.59184
2023-03-29T02:10:06.761Z,122.03468
2023-03-29T02:15:08.028Z,119
2023-03-29T02:20:09.308Z,117.03371
2023-03-29T02:25:10.675Z,116.06704
2023-03-29T02:30:12.103Z,112.30601
2023-03-29T02:35:13.415Z,112.30601
2023-03-29T02:40:14.913Z,113.69697
2023-03-29T02:45:16.317Z,109.5914
2023-03-29T02:50:17.650Z,110.93767
2023-03-29T02:55:19.370Z,113.23077
2023-03-29T03:00:20.613Z,113.23077
2023-03-29T03:05:22.077Z,111.3913
2023-03-29T03:10:23.377Z,110.93767
2023-03-29T03:15:24.682Z,110.48649
2023-03-29T03:20:25.946Z,106.96296
2023-03-29T03:25:27.505Z,107.39523
2023-03-29T03:30:28.826Z,109.5914
2023-03-29T03:35:30.244Z,110.03774
2023-03-29T03:40:31.778Z,109.14745
2023-03-29T03:45:33.417Z,106.53298
2023-03-29T03:50:34.712Z,106.53298
2023-03-29T03:55:36.071Z,103.58549
2023-03-29T04:00:37.336Z,106.10526
2023-03-29T04:05:38.824Z,104.83551
2023-03-29T04:10:40.290Z,102.35476
2023-03-29T04:15:41.638Z,101.14286
2023-03-29T04:20:42.931Z,102.76289
2023-03-29T04:25:44.256Z,101.14286
2023-03-29T04:30:45.683Z,101.94872
2023-03-29T04:35:47.112Z,102.35476
2023-03-29T04:40:48.418Z,106.96296
2023-03-29T04:45:49.715Z,104
2023-03-29T04:50:50.983Z,107.82979
2023-03-29T04:55:52.706Z,105.25654
2023-03-29T05:00:54.055Z,101.54476
2023-03-29T05:05:55.341Z,101.54476
2023-03-29T05:10:56.720Z,100.34518
2023-03-29T05:15:58.393Z,110.93767
2023-03-29T05:21:00.199Z,115.11111
2023-03-29T05:26:01.784Z,123.59184
2023-03-29T05:31:03.187Z,119.49858
2023-03-29T05:36:04.834Z,121.52161
2023-03-29T05:41:06.456Z,123.06977
2023-03-29T05:46:07.980Z,121.52161
2023-03-29T05:51:09.420Z,128.43114
2023-03-29T05:56:10.800Z,125.17647
2023-03-29T06:01:12.195Z,135.30435
2023-03-29T06:06:13.607Z,134.71207
2023-03-29T06:11:15.638Z,140.17834
2023-03-29T06:16:17.034Z,142.07074
2023-03-29T06:21:18.321Z,131.80488
2023-03-29T06:26:19.906Z,145.30719
2023-03-29T06:31:21.270Z,146.63158
2023-03-29T06:36:22.590Z,147.97351
2023-03-29T06:41:24.696Z,148.65116
2023-03-29T06:46:26.180Z,152.10811
2023-03-29T06:51:27.465Z,187.47826
2023-03-29T06:56:28.792Z,166.38267
2023-03-29T07:01:30.227Z,172.14815
2023-03-29T07:06:31.521Z,158.63415
2023-03-29T07:11:33.624Z,180.01533
2023-03-29T07:16:35.049Z,168.81752
2023-03-29T07:21:37.844Z,173.85075
2023-03-29T07:26:46.337Z,185.56863
2023-03-29T07:31:53.941Z,180.92308
2023-03-29T07:36:55.161Z,184.625
2023-03-29T07:41:56.764Z,181.83784
2023-03-29T07:46:58.028Z,171.30627
2023-03-29T07:51:59.263Z,170.47059
2023-03-29T07:57:00.747Z,180.92308
2023-03-29T08:02:02.386Z,172.14815
2023-03-29T08:07:04.096Z,165.58273
2023-03-29T08:12:05.527Z,164.78853
2023-03-29T08:17:06.863Z,170.47059
2023-03-29T08:22:08.421Z,174.71161
2023-03-29T08:27:09.914Z,168.81752
2023-03-29T08:32:11.273Z,171.30627
2023-03-29T08:37:12.697Z,174.71161
2023-03-29T08:42:14.287Z,184.625
2023-03-29T08:47:15.554Z,180.01533
2023-03-29T08:52:16.872Z,168.81752
2023-03-29T08:57:18.204Z,181.83784
2023-03-29T09:02:19.659Z,194.4065
2023-03-29T09:07:21.018Z,180.92308
2023-03-29T09:12:22.500Z,177.33333
2023-03-29T09:17:23.823Z,176.45283
2023-03-29T09:22:25.127Z,178.22053
2023-03-29T09:27:26.706Z,191.38956
2023-03-29T09:32:28.004Z,183.68872
2023-03-29T09:37:29.322Z,197.49794
2023-03-29T09:42:31.555Z,193.39271
2023-03-29T09:47:33.040Z,193.39271
2023-03-29T09:52:34.487Z,0
2023-03-29T09:57:36.210Z,0
2023-03-29T10:02:37.580Z,0
2023-03-29T10:07:38.870Z,0
2023-03-29T10:12:40.714Z,207.24786
2023-03-29T10:17:42.143Z,0
2023-03-29T10:22:43.435Z,203.91561
2023-03-29T10:27:44.929Z,0
2023-03-29T10:32:46.290Z,0
2023-03-29T10:37:47.615Z,0
2023-03-29T10:42:49.245Z,208.37768
2023-03-29T10:47:50.564Z,0
2023-03-29T10:52:51.873Z,0
2023-03-29T10:57:53.448Z,0
2023-03-29T11:02:55.116Z,0
2023-03-29T11:07:56.605Z,0
2023-03-29T11:12:58.955Z,0
2023-03-29T11:18:00.423Z,0
2023-03-29T11:23:01.788Z,0
2023-03-29T11:28:03.064Z,0
2023-03-29T11:33:04.946Z,0
2023-03-29T11:38:06.229Z,0
2023-03-29T11:43:08.332Z,0
2023-03-29T11:48:09.639Z,0
2023-03-29T11:53:11.169Z,0
2023-03-29T11:58:12.788Z,0
2023-03-29T12:03:14.138Z,0
2023-03-29T12:08:15.526Z,0
2023-03-29T12:13:17.256Z,0
2023-03-29T12:18:18.574Z,0
2023-03-29T12:23:20.061Z,0
2023-03-29T12:28:21.321Z,0
2023-03-29T12:33:22.632Z,0
2023-03-29T12:38:24.033Z,0
2023-03-29T12:43:25.456Z,0
2023-03-29T12:48:26.885Z,0
2023-03-29T12:53:28.250Z,0
2023-03-29T12:58:29.628Z,0
2023-03-29T13:03:31.058Z,193.39271
2023-03-29T13:08:32.420Z,0
2023-03-29T13:13:34.696Z,0
2023-03-29T13:18:36.026Z,197.49794
2023-03-29T13:23:37.299Z,206.12766
2023-03-29T13:28:38.716Z,182.75969
2023-03-29T13:33:40.078Z,0
2023-03-29T13:38:41.323Z,0
2023-03-29T13:43:43.429Z,209.51724
2023-03-29T13:48:44.705Z,0
2023-03-29T13:53:46.085Z,184.625
2023-03-29T13:58:47.530Z,196.45902
2023-03-29T14:03:49.044Z,187.47826
2023-03-29T14:08:50.319Z,194.4065
2023-03-29T14:13:51.566Z,199.60166
2023-03-29T14:18:52.815Z,181.83784
2023-03-29T14:23:54.216Z,173.85075
2023-03-29T14:28:55.588Z,182.75969
2023-03-29T14:33:57.181Z,175.57895
2023-03-29T14:38:58.460Z,174.71161
2023-03-29T14:43:59.745Z,164.78853
2023-03-29T14:49:01.017Z,160.90141
2023-03-29T14:54:02.579Z,164.78853
2023-03-29T14:59:03.979Z,161.66784
2023-03-29T15:04:05.240Z,174.71161
2023-03-29T15:09:07.062Z,158.63415
2023-03-29T15:14:08.684Z,149.33333
2023-03-29T15:19:10.010Z,160.90141
2023-03-29T15:24:11.245Z,149.33333
2023-03-29T15:29:12.781Z,134.12346
2023-03-29T15:34:14.242Z,145.96721
2023-03-29T15:39:15.712Z,120
2023-03-29T15:44:17.001Z,131.23404
2023-03-29T15:49:18.280Z,123.06977
2023-03-29T15:54:19.757Z,126.24852
2023-03-29T15:59:21.224Z,134.12346
2023-03-29T16:04:22.564Z,125.71091
2023-03-29T16:09:23.991Z,130.66667
2023-03-29T16:14:25.641Z,124.64516
2023-03-29T16:19:26.930Z,123.06977
2023-03-29T16:24:28.566Z,122.55072
2023-03-29T16:29:30.035Z,116.06704
2023-03-29T16:34:31.402Z,123.59184
2023-03-29T16:39:32.948Z,127.33333
2023-03-29T16:44:34.709Z,127.33333
2023-03-29T16:49:37.150Z,132.3792
2023-03-29T16:54:40.031Z,133.53846
2023-03-29T16:59:41.519Z,131.80488
2023-03-29T17:04:42.880Z,130.10272
2023-03-29T17:09:44.341Z,123.06977
2023-03-29T17:14:45.735Z,127.8806
2023-03-29T17:19:47.328Z,126.78932
2023-03-29T17:24:48.569Z,134.71207
2023-03-29T17:29:50.185Z,131.80488
2023-03-29T17:34:51.736Z,131.80488
2023-03-29T17:39:53.005Z,141.4359
2023-03-29T17:44:54.678Z,131.80488
2023-03-29T17:49:55.928Z,123.06977
2023-03-29T17:54:57.194Z,119
2023-03-29T17:59:58.490Z,119
2023-03-29T18:04:59.793Z,115.58774
2023-03-29T18:10:01.065Z,122.03468
2023-03-29T18:15:02.714Z,122.55072
2023-03-29T18:20:04.147Z,130.66667
2023-03-29T18:25:05.476Z,128.43114
2023-03-29T18:30:06.889Z,126.24852
2023-03-29T18:35:08.372Z,126.24852
2023-03-29T18:40:09.791Z,130.10272
2023-03-29T18:45:11.036Z,129.54217
2023-03-29T18:50:12.342Z,119.49858
2023-03-29T18:55:13.730Z,118.50425
2023-03-29T19:00:15.030Z,126.24852
2023-03-29T19:05:16.303Z,131.23404
2023-03-29T19:10:17.881Z,131.80488
2023-03-29T19:15:19.191Z,130.66667
2023-03-29T19:20:20.706Z,125.71091
2023-03-29T19:25:22.127Z,130.66667
2023-03-29T19:30:23.712Z,126.24852
2023-03-29T19:35:25.061Z,127.33333
2023-03-29T19:40:26.413Z,128.43114
2023-03-29T19:45:27.656Z,137.71069
2023-03-29T19:50:28.931Z,130.66667
2023-03-29T19:55:30.491Z,134.12346
2023-03-29T20:00:31.964Z,145.96721
2023-03-29T20:05:33.226Z,140.17834
2023-03-29T20:10:34.524Z,137.10345
2023-03-29T20:15:36.174Z,144.65147
2023-03-29T20:20:37.510Z,138.93671
2023-03-29T20:25:39.086Z,136.5
2023-03-29T20:30:40.369Z,127.33333
2023-03-29T20:35:41.881Z,134.71207
2023-03-29T20:40:43.231Z,133.53846
2023-03-29T20:45:52.505Z,131.80488
2023-03-29T20:50:55.073Z,132.95706
2023-03-29T20:55:56.519Z,138.32177
2023-03-29T21:00:58.025Z,134.71207
2023-03-29T21:05:59.356Z,135.30435
2023-03-29T21:11:00.779Z,134.12346
2023-03-29T21:16:02.529Z,136.5
2023-03-29T21:21:04.083Z,137.10345
2023-03-29T21:26:05.530Z,138.32177
2023-03-29T21:31:07.411Z,136.5
2023-03-29T21:36:08.830Z,142.07074
2023-03-29T21:41:10.363Z,151.40741
2023-03-29T21:46:11.869Z,158.63415
2023-03-29T21:51:13.354Z,156.41379
2023-03-29T21:56:14.620Z,152.10811
2023-03-29T22:01:16.037Z,148.65116
2023-03-29T22:13:31.992Z,147.30033
2023-03-29T22:18:35.059Z,156.41379
2023-03-29T22:23:36.555Z,157.88889
2023-03-29T22:28:38.004Z,160.14035
2023-03-29T22:33:39.954Z,152.10811
2023-03-29T22:38:41.373Z,152.10811
2023-03-29T22:43:42.749Z,156.41379
2023-03-29T22:48:44.578Z,157.88889
2023-03-29T22:53:45.941Z,172.14815
2023-03-29T22:58:47.434Z,175.57895
2023-03-29T23:03:50.423Z,179.1145
2023-03-29T23:08:51.813Z,173.85075
2023-03-29T23:13:54.209Z,179.1145
2023-03-29T23:18:55.649Z,168
2023-03-29T23:23:58.386Z,173.85075
2023-03-29T23:28:59.749Z,163.21708
2023-03-29T23:34:01.456Z,162.43972
2023-03-29T23:39:03.037Z,154.23891
2023-03-29T23:44:04.993Z,159.38462
2023-03-29T23:49:06.400Z,154.9589
2023-03-29T23:54:07.775Z,147.97351
2023-03-29T23:59:09.062Z,147.30033
